sensor_id;sensor_type;location;lat;lon;timestamp;temperature;humidity
1992;DHT22;997;48.448;8.924;2024-01-15T00:01:08;-1.20;99.90
1992;DHT22;997;48.448;8.924;2024-01-15T00:03:33;-1.20;99.90
1992;DHT22;997;48.448;8.924;2024-01-15T00:05:59;-1.10;99.90
1992;DHT22;997;48.448;8.924;2024-01-15T00:08:25;-1.10;99.90
1992;DHT22;997;48.448;8.924;2024-01-15T00:10:51;-1.00;99.90
1992;DHT22;997;48.448;8.924;2024-01-15T00:13:17;-1.00;99.90
1992;DHT22;997;48.448;8.924;2024-01-15T00:15:42;-1.10;99.90
1992;DHT22;997;48.448;8.924;2024-01-15T00:18:09;-1.20;99.90
1992;DHT22;997;48.448;8.924;2024-01-15T00:20:34;-1.10;99.90
1992;DHT22;997;48.448;8.924;2024-01-15T00:23:00;-1.20;99.90
1992;DHT22;997;48.448;8.924;2024-01-15T00:25:26;-1.20;99.90
1992;DHT22;997;48.448;8.924;2024-01-15T00:27:51;-1.20;99.90
1992;DHT22;997;48.448;8.924;2024-01-15T00:30:17;-1.30;99.90
1992;DHT22;997;48.448;8.924;2024-01-15T00:32:42;-1.30;99.90
1992;DHT22;997;48.448;8.924;2024-01-15T00:35:08;-1.20;99.90
1992;DHT22;997;48.448;8.924;2024-01-15T00:37:34;-1.10;99.90
1992;DHT22;997;48.448;8.924;2024-01-15T00:39:59;-1.00;99.90
1992;DHT22;997;48.448;8.924;2024-01-15T00:42:26;-1.10;99.90
1992;DHT22;997;48.448;8.924;2024-01-15T00:44:51;-1.10;99.90
1992;DHT22;997;48.448;8.924;2024-01-15T00:47:18;-1.10;99.90
1992;DHT22;997;48.448;8.924;2024-01-15T00:49:44;-1.10;99.90
1992;DHT22;997;48.448;8.924;2024-01-15T00:52:10;-1.10;99.90
1992;DHT22;997;48.448;8.924;2024-01-15T00:54:36;-1.00;99.90
1992;DHT22;997;48.448;8.924;2024-01-15T00:57:01;-1.00;99.90
1992;DHT22;997;48.448;8.924;2024-01-15T00:59:27;-1.00;99.90
1992;DHT22;997;48.448;8.924;2024-01-15T01:01:53;-1.00;99.90
1992;DHT22;997;48.448;8.924;2024-01-15T01:04:19;-1.00;99.90
1992;DHT22;997;48.448;8.924;2024-01-15T01:06:44;-0.90;99.90
1992;DHT22;997;48.448;8.924;2024-01-15T01:09:10;-1.00;99.90
1992;DHT22;997;48.448;8.924;2024-01-15T01:11:35;-1.00;99.90
1992;DHT22;997;48.448;8.924;2024-01-15T01:14:01;-1.10;99.90
1992;DHT22;997;48.448;8.924;2024-01-15T01:16:27;-1.10;99.90
1992;DHT22;997;48.448;8.924;2024-01-15T01:18:53;-1.20;99.90
1992;DHT22;997;48.448;8.924;2024-01-15T01:21:18;-1.30;99.90
1992;DHT22;997;48.448;8.924;2024-01-15T01:23:44;-1.20;99.90
1992;DHT22;997;48.448;8.924;2024-01-15T01:26:09;-1.30;99.90
1992;DHT22;997;48.448;8.924;2024-01-15T01:28:35;-1.40;99.90
1992;DHT22;997;48.448;8.924;2024-01-15T01:31:01;-1.50;99.90
1992;DHT22;997;48.448;8.924;2024-01-15T01:33:26;-1.50;99.90
1992;DHT22;997;48.448;8.924;2024-01-15T01:35:52;-1.40;99.90
1992;DHT22;997;48.448;8.924;2024-01-15T01:38:18;-1.40;99.90
1992;DHT22;997;48.448;8.924;2024-01-15T01:40:44;-1.40;99.90
1992;DHT22;997;48.448;8.924;2024-01-15T01:43:10;-1.40;99.90
1992;DHT22;997;48.448;8.924;2024-01-15T01:45:35;-1.30;99.90
1992;DHT22;997;48.448;8.924;2024-01-15T01:48:01;-1.30;99.90
1992;DHT22;997;48.448;8.924;2024-01-15T01:50:29;-1.20;99.90
1992;DHT22;997;48.448;8.924;2024-01-15T01:52:55;-1.20;99.90
1992;DHT22;997;48.448;8.924;2024-01-15T01:55:22;-1.10;99.90
1992;DHT22;997;48.448;8.924;2024-01-15T01:57:50;-1.20;99.90
1992;DHT22;997;48.448;8.924;2024-01-15T02:00:16;-1.20;99.90
1992;DHT22;997;48.448;8.924;2024-01-15T02:02:42;-1.10;99.90
1992;DHT22;997;48.448;8.924;2024-01-15T02:05:08;-1.20;99.90
1992;DHT22;997;48.448;8.924;2024-01-15T02:07:34;-1.20;99.90
1992;DHT22;997;48.448;8.924;2024-01-15T02:10:01;-1.20;99.90
1992;DHT22;997;48.448;8.924;2024-01-15T02:12:27;-1.20;99.90
1992;DHT22;997;48.448;8.924;2024-01-15T02:14:52;-1.10;99.90
1992;DHT22;997;48.448;8.924;2024-01-15T02:17:19;-1.10;99.90
1992;DHT22;997;48.448;8.924;2024-01-15T02:19:44;-1.10;99.90
1992;DHT22;997;48.448;8.924;2024-01-15T02:22:10;-1.10;99.90
1992;DHT22;997;48.448;8.924;2024-01-15T02:24:35;-0.90;99.90
1992;DHT22;997;48.448;8.924;2024-01-15T02:27:01;-0.90;99.90
1992;DHT22;997;48.448;8.924;2024-01-15T02:29:27;-1.00;99.90
1992;DHT22;997;48.448;8.924;2024-01-15T02:31:53;-0.90;99.90
1992;DHT22;997;48.448;8.924;2024-01-15T02:34:18;-0.80;99.90
1992;DHT22;997;48.448;8.924;2024-01-15T02:36:44;-0.70;99.90
1992;DHT22;997;48.448;8.924;2024-01-15T02:39:10;-0.80;99.90
1992;DHT22;997;48.448;8.924;2024-01-15T02:41:35;-0.70;99.90
1992;DHT22;997;48.448;8.924;2024-01-15T02:44:01;-0.70;99.90
1992;DHT22;997;48.448;8.924;2024-01-15T02:46:26;-0.60;99.90
1992;DHT22;997;48.448;8.924;2024-01-15T02:48:52;-0.60;99.90
1992;DHT22;997;48.448;8.924;2024-01-15T02:51:18;-0.60;99.90
1992;DHT22;997;48.448;8.924;2024-01-15T02:53:43;-0.70;99.90
1992;DHT22;997;48.448;8.924;2024-01-15T02:56:09;-0.70;99.90
1992;DHT22;997;48.448;8.924;2024-01-15T02:58:34;-0.70;99.90
1992;DHT22;997;48.448;8.924;2024-01-15T03:01:00;-0.60;99.90
1992;DHT22;997;48.448;8.924;2024-01-15T03:03:26;-0.60;99.90
1992;DHT22;997;48.448;8.924;2024-01-15T03:05:51;-0.50;99.90
1992;DHT22;997;48.448;8.924;2024-01-15T03:08:17;-0.50;99.90
1992;DHT22;997;48.448;8.924;2024-01-15T03:10:43;-0.50;99.90
1992;DHT22;997;48.448;8.924;2024-01-15T03:13:08;-0.70;99.90
1992;DHT22;997;48.448;8.924;2024-01-15T03:15:34;-0.60;99.90
1992;DHT22;997;48.448;8.924;2024-01-15T03:18:00;-0.60;99.90
1992;DHT22;997;48.448;8.924;2024-01-15T03:20:25;-0.60;99.90
1992;DHT22;997;48.448;8.924;2024-01-15T03:22:51;-0.60;99.90
1992;DHT22;997;48.448;8.924;2024-01-15T03:25:17;-0.50;99.90
1992;DHT22;997;48.448;8.924;2024-01-15T03:27:42;-0.60;99.90
1992;DHT22;997;48.448;8.924;2024-01-15T03:30:08;-0.40;99.90
1992;DHT22;997;48.448;8.924;2024-01-15T03:32:34;-0.50;99.90
1992;DHT22;997;48.448;8.924;2024-01-15T03:34:59;-0.60;99.90
1992;DHT22;997;48.448;8.924;2024-01-15T03:37:25;-0.50;99.90
1992;DHT22;997;48.448;8.924;2024-01-15T03:39:51;-0.50;99.90
1992;DHT22;997;48.448;8.924;2024-01-15T03:42:17;-0.40;99.90
1992;DHT22;997;48.448;8.924;2024-01-15T03:44:42;-0.50;99.90
1992;DHT22;997;48.448;8.924;2024-01-15T03:47:08;-0.50;99.90
1992;DHT22;997;48.448;8.924;2024-01-15T03:49:34;-0.50;99.90
1992;DHT22;997;48.448;8.924;2024-01-15T03:51:59;-0.70;99.90
1992;DHT22;997;48.448;8.924;2024-01-15T03:54:25;-0.70;99.90
1992;DHT22;997;48.448;8.924;2024-01-15T03:56:51;-0.90;99.90
1992;DHT22;997;48.448;8.924;2024-01-15T03:59:17;-0.90;99.90
1992;DHT22;997;48.448;8.924;2024-01-15T04:01:48;-0.90;99.90
1992;DHT22;997;48.448;8.924;2024-01-15T04:04:15;-1.00;99.90
1992;DHT22;997;48.448;8.924;2024-01-15T04:06:40;-1.00;99.90
1992;DHT22;997;48.448;8.924;2024-01-15T04:09:06;-1.00;99.90
1992;DHT22;997;48.448;8.924;2024-01-15T04:11:32;-1.00;99.90
1992;DHT22;997;48.448;8.924;2024-01-15T04:13:57;-0.90;99.90
1992;DHT22;997;48.448;8.924;2024-01-15T04:16:23;-1.00;99.90
1992;DHT22;997;48.448;8.924;2024-01-15T04:18:48;-1.00;99.90
1992;DHT22;997;48.448;8.924;2024-01-15T04:21:14;-0.90;99.90
1992;DHT22;997;48.448;8.924;2024-01-15T04:23:40;-1.00;99.90
1992;DHT22;997;48.448;8.924;2024-01-15T04:26:05;-0.90;99.90
1992;DHT22;997;48.448;8.924;2024-01-15T04:28:31;-0.90;99.90
1992;DHT22;997;48.448;8.924;2024-01-15T04:30:56;-0.90;99.90
1992;DHT22;997;48.448;8.924;2024-01-15T04:33:22;-0.80;99.90
1992;DHT22;997;48.448;8.924;2024-01-15T04:35:48;-0.70;99.90
1992;DHT22;997;48.448;8.924;2024-01-15T04:38:14;-0.70;99.90
1992;DHT22;997;48.448;8.924;2024-01-15T04:40:39;-0.80;99.90
1992;DHT22;997;48.448;8.924;2024-01-15T04:43:06;-0.80;99.90
1992;DHT22;997;48.448;8.924;2024-01-15T04:45:31;-0.80;99.90
1992;DHT22;997;48.448;8.924;2024-01-15T04:47:57;-0.70;99.90
1992;DHT22;997;48.448;8.924;2024-01-15T04:50:23;-0.70;99.90
1992;DHT22;997;48.448;8.924;2024-01-15T04:52:49;-0.80;99.90
1992;DHT22;997;48.448;8.924;2024-01-15T04:55:15;-0.70;99.90
1992;DHT22;997;48.448;8.924;2024-01-15T04:57:41;-0.70;99.90
1992;DHT22;997;48.448;8.924;2024-01-15T05:00:07;-0.70;99.90
1992;DHT22;997;48.448;8.924;2024-01-15T05:02:32;-0.60;99.90
1992;DHT22;997;48.448;8.924;2024-01-15T05:04:58;-0.70;99.90
1992;DHT22;997;48.448;8.924;2024-01-15T05:07:24;-0.80;99.90
1992;DHT22;997;48.448;8.924;2024-01-15T05:09:49;-0.80;99.90
1992;DHT22;997;48.448;8.924;2024-01-15T05:12:15;-0.80;99.90
1992;DHT22;997;48.448;8.924;2024-01-15T05:14:41;-0.60;99.90
1992;DHT22;997;48.448;8.924;2024-01-15T05:17:06;-0.50;99.90
1992;DHT22;997;48.448;8.924;2024-01-15T05:19:32;-0.60;99.90
1992;DHT22;997;48.448;8.924;2024-01-15T05:21:57;-0.50;99.90
1992;DHT22;997;48.448;8.924;2024-01-15T05:24:23;-0.40;99.90
1992;DHT22;997;48.448;8.924;2024-01-15T05:26:49;-0.50;99.90
1992;DHT22;997;48.448;8.924;2024-01-15T05:29:14;-0.40;99.90
1992;DHT22;997;48.448;8.924;2024-01-15T05:31:40;-0.50;99.90
1992;DHT22;997;48.448;8.924;2024-01-15T05:34:06;-0.50;99.90
1992;DHT22;997;48.448;8.924;2024-01-15T05:36:31;-0.50;99.90
1992;DHT22;997;48.448;8.924;2024-01-15T05:38:57;-0.60;99.90
1992;DHT22;997;48.448;8.924;2024-01-15T05:41:23;-0.70;99.90
1992;DHT22;997;48.448;8.924;2024-01-15T05:43:48;-0.70;99.90
1992;DHT22;997;48.448;8.924;2024-01-15T05:46:14;-0.60;99.90
1992;DHT22;997;48.448;8.924;2024-01-15T05:48:40;-0.60;99.90
1992;DHT22;997;48.448;8.924;2024-01-15T05:51:06;-0.60;99.90
1992;DHT22;997;48.448;8.924;2024-01-15T05:53:32;-0.50;99.90
1992;DHT22;997;48.448;8.924;2024-01-15T05:55:57;-0.50;99.90
1992;DHT22;997;48.448;8.924;2024-01-15T05:58:23;-0.50;99.90
1992;DHT22;997;48.448;8.924;2024-01-15T06:00:49;-0.50;99.90
1992;DHT22;997;48.448;8.924;2024-01-15T06:03:15;-0.60;99.90
1992;DHT22;997;48.448;8.924;2024-01-15T06:05:41;-0.60;99.90
1992;DHT22;997;48.448;8.924;2024-01-15T06:08:06;-0.50;99.90
1992;DHT22;997;48.448;8.924;2024-01-15T06:10:32;-0.60;99.90
1992;DHT22;997;48.448;8.924;2024-01-15T06:12:58;-0.50;99.90
1992;DHT22;997;48.448;8.924;2024-01-15T06:15:23;-0.50;99.90
1992;DHT22;997;48.448;8.924;2024-01-15T06:17:49;-0.50;99.90
1992;DHT22;997;48.448;8.924;2024-01-15T06:20:14;-0.60;99.90
1992;DHT22;997;48.448;8.924;2024-01-15T06:22:40;-0.60;99.90
1992;DHT22;997;48.448;8.924;2024-01-15T06:25:09;-0.60;99.90
1992;DHT22;997;48.448;8.924;2024-01-15T06:27:34;-0.60;99.90
1992;DHT22;997;48.448;8.924;2024-01-15T06:30:00;-0.60;99.90
1992;DHT22;997;48.448;8.924;2024-01-15T06:32:26;-0.60;99.90
1992;DHT22;997;48.448;8.924;2024-01-15T06:34:52;-0.50;99.90
1992;DHT22;997;48.448;8.924;2024-01-15T06:37:17;-0.50;99.90
1992;DHT22;997;48.448;8.924;2024-01-15T06:39:45;-0.40;99.90
1992;DHT22;997;48.448;8.924;2024-01-15T06:42:11;-0.40;99.90
1992;DHT22;997;48.448;8.924;2024-01-15T06:44:37;-0.50;99.90
1992;DHT22;997;48.448;8.924;2024-01-15T06:47:02;-0.40;99.90
1992;DHT22;997;48.448;8.924;2024-01-15T06:49:29;-0.40;99.90
1992;DHT22;997;48.448;8.924;2024-01-15T06:51:55;-0.50;99.90
1992;DHT22;997;48.448;8.924;2024-01-15T06:54:21;-0.40;99.90
1992;DHT22;997;48.448;8.924;2024-01-15T06:56:48;-0.40;99.90
1992;DHT22;997;48.448;8.924;2024-01-15T06:59:13;-0.50;99.90
1992;DHT22;997;48.448;8.924;2024-01-15T07:01:39;-0.50;99.90
1992;DHT22;997;48.448;8.924;2024-01-15T07:04:05;-0.40;99.90
1992;DHT22;997;48.448;8.924;2024-01-15T07:06:32;-0.30;99.90
1992;DHT22;997;48.448;8.924;2024-01-15T07:08:57;-0.20;99.90
1992;DHT22;997;48.448;8.924;2024-01-15T07:11:23;-0.30;99.90
1992;DHT22;997;48.448;8.924;2024-01-15T07:13:49;-0.30;99.90
1992;DHT22;997;48.448;8.924;2024-01-15T07:16:15;-0.30;99.90
1992;DHT22;997;48.448;8.924;2024-01-15T07:18:41;-0.30;99.90
1992;DHT22;997;48.448;8.924;2024-01-15T07:21:06;-0.30;99.90
1992;DHT22;997;48.448;8.924;2024-01-15T07:23:32;-0.30;99.90
1992;DHT22;997;48.448;8.924;2024-01-15T07:25:58;-0.30;99.90
1992;DHT22;997;48.448;8.924;2024-01-15T07:28:23;-0.30;99.90
1992;DHT22;997;48.448;8.924;2024-01-15T07:30:49;-0.40;99.90
1992;DHT22;997;48.448;8.924;2024-01-15T07:33:15;-0.40;99.90
1992;DHT22;997;48.448;8.924;2024-01-15T07:35:40;-0.50;99.90
1992;DHT22;997;48.448;8.924;2024-01-15T07:38:06;-0.50;99.90
1992;DHT22;997;48.448;8.924;2024-01-15T07:40:32;-0.40;99.90
1992;DHT22;997;48.448;8.924;2024-01-15T07:42:58;-0.40;99.90
1992;DHT22;997;48.448;8.924;2024-01-15T07:45:24;-0.40;99.90
1992;DHT22;997;48.448;8.924;2024-01-15T07:47:50;-0.40;99.90
1992;DHT22;997;48.448;8.924;2024-01-15T07:50:15;-0.40;99.90
1992;DHT22;997;48.448;8.924;2024-01-15T07:52:41;-0.40;99.90
1992;DHT22;997;48.448;8.924;2024-01-15T07:55:09;-0.30;99.90
1992;DHT22;997;48.448;8.924;2024-01-15T07:57:35;-0.30;99.90
1992;DHT22;997;48.448;8.924;2024-01-15T08:00:02;-0.30;99.90
1992;DHT22;997;48.448;8.924;2024-01-15T08:02:30;-0.30;99.90
1992;DHT22;997;48.448;8.924;2024-01-15T08:04:57;-0.30;99.90
1992;DHT22;997;48.448;8.924;2024-01-15T08:07:24;-0.20;99.90
1992;DHT22;997;48.448;8.924;2024-01-15T08:09:51;-0.20;99.90
1992;DHT22;997;48.448;8.924;2024-01-15T08:12:17;-0.20;99.90
1992;DHT22;997;48.448;8.924;2024-01-15T08:14:43;-0.20;99.90
1992;DHT22;997;48.448;8.924;2024-01-15T08:17:08;-0.20;99.90
1992;DHT22;997;48.448;8.924;2024-01-15T08:19:34;-0.20;99.90
1992;DHT22;997;48.448;8.924;2024-01-15T08:22:00;-0.10;99.90
1992;DHT22;997;48.448;8.924;2024-01-15T08:24:26;0.00;99.90
1992;DHT22;997;48.448;8.924;2024-01-15T08:26:51;-0.10;99.90
1992;DHT22;997;48.448;8.924;2024-01-15T08:29:17;-0.10;99.90
1992;DHT22;997;48.448;8.924;2024-01-15T08:31:44;-0.10;99.90
1992;DHT22;997;48.448;8.924;2024-01-15T08:34:09;-0.10;99.90
1992;DHT22;997;48.448;8.924;2024-01-15T08:36:35;-0.10;99.90
1992;DHT22;997;48.448;8.924;2024-01-15T08:39:01;-0.10;99.90
1992;DHT22;997;48.448;8.924;2024-01-15T08:41:30;0.00;99.90
1992;DHT22;997;48.448;8.924;2024-01-15T08:43:56;0.00;99.90
1992;DHT22;997;48.448;8.924;2024-01-15T08:46:22;0.00;99.90
1992;DHT22;997;48.448;8.924;2024-01-15T08:48:47;0.00;99.90
1992;DHT22;997;48.448;8.924;2024-01-15T08:51:13;0.10;99.90
1992;DHT22;997;48.448;8.924;2024-01-15T08:53:39;0.00;99.90
1992;DHT22;997;48.448;8.924;2024-01-15T08:56:05;0.00;99.90
1992;DHT22;997;48.448;8.924;2024-01-15T08:58:31;0.10;99.90
1992;DHT22;997;48.448;8.924;2024-01-15T09:00:57;0.10;99.90
1992;DHT22;997;48.448;8.924;2024-01-15T09:03:22;0.20;99.90
1992;DHT22;997;48.448;8.924;2024-01-15T09:05:48;0.20;99.90
1992;DHT22;997;48.448;8.924;2024-01-15T09:08:15;0.20;99.90
1992;DHT22;997;48.448;8.924;2024-01-15T09:10:41;0.30;99.90
1992;DHT22;997;48.448;8.924;2024-01-15T09:13:07;0.30;99.90
1992;DHT22;997;48.448;8.924;2024-01-15T09:15:33;0.40;99.90
1992;DHT22;997;48.448;8.924;2024-01-15T09:17:59;0.40;99.90
1992;DHT22;997;48.448;8.924;2024-01-15T09:20:28;0.40;99.90
1992;DHT22;997;48.448;8.924;2024-01-15T09:22:53;0.50;99.90
1992;DHT22;997;48.448;8.924;2024-01-15T09:25:19;0.50;99.90
1992;DHT22;997;48.448;8.924;2024-01-15T09:27:45;0.50;99.90
1992;DHT22;997;48.448;8.924;2024-01-15T09:30:11;0.50;99.90
1992;DHT22;997;48.448;8.924;2024-01-15T09:32:37;0.50;99.90
1992;DHT22;997;48.448;8.924;2024-01-15T09:35:03;0.60;99.90
1992;DHT22;997;48.448;8.924;2024-01-15T09:37:29;0.60;99.90
1992;DHT22;997;48.448;8.924;2024-01-15T09:39:55;0.70;99.90
1992;DHT22;997;48.448;8.924;2024-01-15T09:42:23;0.80;99.90
1992;DHT22;997;48.448;8.924;2024-01-15T09:44:50;0.90;99.90
1992;DHT22;997;48.448;8.924;2024-01-15T09:47:18;1.00;99.90
1992;DHT22;997;48.448;8.924;2024-01-15T09:49:44;1.00;99.90
1992;DHT22;997;48.448;8.924;2024-01-15T09:52:11;1.00;99.90
1992;DHT22;997;48.448;8.924;2024-01-15T09:54:37;1.00;99.90
1992;DHT22;997;48.448;8.924;2024-01-15T09:57:04;1.10;99.90
1992;DHT22;997;48.448;8.924;2024-01-15T09:59:31;1.10;99.90
1992;DHT22;997;48.448;8.924;2024-01-15T10:01:58;1.10;99.90
1992;DHT22;997;48.448;8.924;2024-01-15T10:04:24;1.20;99.90
1992;DHT22;997;48.448;8.924;2024-01-15T10:06:51;1.20;99.90
1992;DHT22;997;48.448;8.924;2024-01-15T10:09:18;1.30;99.90
1992;DHT22;997;48.448;8.924;2024-01-15T10:11:44;1.30;99.90
1992;DHT22;997;48.448;8.924;2024-01-15T10:14:11;1.30;99.90
1992;DHT22;997;48.448;8.924;2024-01-15T10:16:40;1.10;99.90
1992;DHT22;997;48.448;8.924;2024-01-15T10:19:07;1.00;99.90
1992;DHT22;997;48.448;8.924;2024-01-15T10:21:33;1.10;99.90
1992;DHT22;997;48.448;8.924;2024-01-15T10:24:03;1.10;99.90
1992;DHT22;997;48.448;8.924;2024-01-15T10:26:30;1.00;99.90
1992;DHT22;997;48.448;8.924;2024-01-15T10:28:58;0.90;99.90
1992;DHT22;997;48.448;8.924;2024-01-15T10:31:25;1.00;99.90
1992;DHT22;997;48.448;8.924;2024-01-15T10:33:51;1.00;99.90
1992;DHT22;997;48.448;8.924;2024-01-15T10:36:18;1.00;99.90
1992;DHT22;997;48.448;8.924;2024-01-15T10:38:44;1.10;99.90
1992;DHT22;997;48.448;8.924;2024-01-15T10:41:10;1.10;99.90
1992;DHT22;997;48.448;8.924;2024-01-15T10:43:36;1.20;99.90
1992;DHT22;997;48.448;8.924;2024-01-15T10:46:02;1.20;99.90
1992;DHT22;997;48.448;8.924;2024-01-15T10:48:29;1.10;99.90
1992;DHT22;997;48.448;8.924;2024-01-15T10:50:57;1.10;99.90
1992;DHT22;997;48.448;8.924;2024-01-15T10:53:23;1.10;99.90
1992;DHT22;997;48.448;8.924;2024-01-15T10:55:50;1.10;99.90
1992;DHT22;997;48.448;8.924;2024-01-15T10:58:17;1.10;99.90
1992;DHT22;997;48.448;8.924;2024-01-15T11:00:44;1.10;99.90
1992;DHT22;997;48.448;8.924;2024-01-15T11:03:10;1.10;99.90
1992;DHT22;997;48.448;8.924;2024-01-15T11:05:42;1.10;99.90
1992;DHT22;997;48.448;8.924;2024-01-15T11:08:09;1.20;99.90
1992;DHT22;997;48.448;8.924;2024-01-15T11:13:20;1.10;99.90
1992;DHT22;997;48.448;8.924;2024-01-15T11:16:04;1.20;99.90
1992;DHT22;997;48.448;8.924;2024-01-15T11:18:31;1.20;99.90
1992;DHT22;997;48.448;8.924;2024-01-15T11:26:45;1.00;99.90
1992;DHT22;997;48.448;8.924;2024-01-15T11:34:21;0.90;99.90
1992;DHT22;997;48.448;8.924;2024-01-15T11:37:00;0.90;99.90
1992;DHT22;997;48.448;8.924;2024-01-15T11:42:02;0.90;99.90
1992;DHT22;997;48.448;8.924;2024-01-15T11:44:29;0.80;99.90
1992;DHT22;997;48.448;8.924;2024-01-15T11:47:02;0.90;99.90
1992;DHT22;997;48.448;8.924;2024-01-15T11:52:06;0.90;99.90
1992;DHT22;997;48.448;8.924;2024-01-15T11:54:35;1.00;99.90
1992;DHT22;997;48.448;8.924;2024-01-15T11:57:07;1.00;99.90
1992;DHT22;997;48.448;8.924;2024-01-15T11:59:35;1.00;99.90
1992;DHT22;997;48.448;8.924;2024-01-15T12:02:02;0.90;99.90
1992;DHT22;997;48.448;8.924;2024-01-15T12:04:28;0.80;99.90
1992;DHT22;997;48.448;8.924;2024-01-15T12:06:54;0.80;99.90
1992;DHT22;997;48.448;8.924;2024-01-15T12:09:20;0.80;99.90
1992;DHT22;997;48.448;8.924;2024-01-15T12:11:53;0.70;99.90
1992;DHT22;997;48.448;8.924;2024-01-15T12:14:21;0.70;99.90
1992;DHT22;997;48.448;8.924;2024-01-15T12:16:47;0.80;99.90
1992;DHT22;997;48.448;8.924;2024-01-15T12:19:15;0.80;99.90
1992;DHT22;997;48.448;8.924;2024-01-15T12:21:41;0.80;99.90
1992;DHT22;997;48.448;8.924;2024-01-15T12:24:10;0.80;99.90
1992;DHT22;997;48.448;8.924;2024-01-15T12:26:35;0.70;99.90
1992;DHT22;997;48.448;8.924;2024-01-15T12:29:02;0.70;99.90
1992;DHT22;997;48.448;8.924;2024-01-15T12:31:29;0.60;99.90
1992;DHT22;997;48.448;8.924;2024-01-15T12:33:56;0.60;99.90
1992;DHT22;997;48.448;8.924;2024-01-15T12:36:21;0.70;99.90
1992;DHT22;997;48.448;8.924;2024-01-15T12:38:47;0.70;99.90
1992;DHT22;997;48.448;8.924;2024-01-15T12:41:13;0.80;99.90
1992;DHT22;997;48.448;8.924;2024-01-15T12:43:38;0.80;99.90
1992;DHT22;997;48.448;8.924;2024-01-15T12:46:06;0.70;99.90
1992;DHT22;997;48.448;8.924;2024-01-15T12:48:31;0.70;99.90
1992;DHT22;997;48.448;8.924;2024-01-15T12:50:57;0.70;99.90
1992;DHT22;997;48.448;8.924;2024-01-15T12:53:23;0.80;99.90
1992;DHT22;997;48.448;8.924;2024-01-15T12:55:48;0.80;99.90
1992;DHT22;997;48.448;8.924;2024-01-15T12:58:14;0.80;99.90
1992;DHT22;997;48.448;8.924;2024-01-15T13:00:40;0.80;99.90
1992;DHT22;997;48.448;8.924;2024-01-15T13:03:05;0.80;99.90
1992;DHT22;997;48.448;8.924;2024-01-15T13:05:32;0.80;99.90
1992;DHT22;997;48.448;8.924;2024-01-15T13:07:59;0.80;99.90
1992;DHT22;997;48.448;8.924;2024-01-15T13:10:25;0.80;99.90
1992;DHT22;997;48.448;8.924;2024-01-15T13:12:50;0.80;99.90
1992;DHT22;997;48.448;8.924;2024-01-15T13:15:16;0.80;99.90
1992;DHT22;997;48.448;8.924;2024-01-15T13:17:42;0.80;99.90
1992;DHT22;997;48.448;8.924;2024-01-15T13:20:08;0.80;99.90
1992;DHT22;997;48.448;8.924;2024-01-15T13:22:34;0.70;99.90
1992;DHT22;997;48.448;8.924;2024-01-15T13:25:00;0.70;99.90
1992;DHT22;997;48.448;8.924;2024-01-15T13:27:26;0.70;99.90
1992;DHT22;997;48.448;8.924;2024-01-15T13:29:51;0.70;99.90
1992;DHT22;997;48.448;8.924;2024-01-15T13:32:28;0.70;99.90
1992;DHT22;997;48.448;8.924;2024-01-15T13:34:56;0.80;99.90
1992;DHT22;997;48.448;8.924;2024-01-15T13:37:22;0.80;99.90
1992;DHT22;997;48.448;8.924;2024-01-15T13:39:50;0.80;99.90
1992;DHT22;997;48.448;8.924;2024-01-15T13:42:17;0.70;99.90
1992;DHT22;997;48.448;8.924;2024-01-15T13:44:42;0.70;99.90
1992;DHT22;997;48.448;8.924;2024-01-15T13:47:08;0.70;99.90
1992;DHT22;997;48.448;8.924;2024-01-15T13:49:34;0.60;99.90
1992;DHT22;997;48.448;8.924;2024-01-15T13:52:01;0.50;99.90
1992;DHT22;997;48.448;8.924;2024-01-15T13:54:29;0.50;99.90
1992;DHT22;997;48.448;8.924;2024-01-15T13:56:55;0.50;99.90
1992;DHT22;997;48.448;8.924;2024-01-15T13:59:21;0.50;99.90
1992;DHT22;997;48.448;8.924;2024-01-15T14:01:47;0.50;99.90
1992;DHT22;997;48.448;8.924;2024-01-15T14:04:13;0.50;99.90
1992;DHT22;997;48.448;8.924;2024-01-15T14:06:39;0.50;99.90
1992;DHT22;997;48.448;8.924;2024-01-15T14:09:05;0.50;99.90
1992;DHT22;997;48.448;8.924;2024-01-15T14:11:31;0.50;99.90
1992;DHT22;997;48.448;8.924;2024-01-15T14:13:57;0.50;99.90
1992;DHT22;997;48.448;8.924;2024-01-15T14:16:22;0.40;99.90
1992;DHT22;997;48.448;8.924;2024-01-15T14:18:48;0.40;99.90
1992;DHT22;997;48.448;8.924;2024-01-15T14:21:14;0.40;99.90
1992;DHT22;997;48.448;8.924;2024-01-15T14:23:40;0.40;99.90
1992;DHT22;997;48.448;8.924;2024-01-15T14:26:06;0.30;99.90
1992;DHT22;997;48.448;8.924;2024-01-15T14:28:31;0.20;99.90
1992;DHT22;997;48.448;8.924;2024-01-15T14:30:57;0.20;99.90
1992;DHT22;997;48.448;8.924;2024-01-15T14:33:26;0.20;99.90
1992;DHT22;997;48.448;8.924;2024-01-15T14:35:52;0.20;99.90
1992;DHT22;997;48.448;8.924;2024-01-15T14:38:18;0.30;99.90
1992;DHT22;997;48.448;8.924;2024-01-15T14:40:43;0.30;99.90
1992;DHT22;997;48.448;8.924;2024-01-15T14:43:10;0.30;99.90
1992;DHT22;997;48.448;8.924;2024-01-15T14:45:36;0.30;99.90
1992;DHT22;997;48.448;8.924;2024-01-15T14:48:02;0.30;99.90
1992;DHT22;997;48.448;8.924;2024-01-15T14:50:27;0.30;99.90
1992;DHT22;997;48.448;8.924;2024-01-15T14:52:53;0.20;99.90
1992;DHT22;997;48.448;8.924;2024-01-15T14:55:19;0.30;99.90
1992;DHT22;997;48.448;8.924;2024-01-15T14:57:45;0.30;99.90
1992;DHT22;997;48.448;8.924;2024-01-15T15:00:10;0.30;99.90
1992;DHT22;997;48.448;8.924;2024-01-15T15:02:39;0.40;99.90
1992;DHT22;997;48.448;8.924;2024-01-15T15:05:05;0.50;99.90
1992;DHT22;997;48.448;8.924;2024-01-15T15:07:30;0.40;99.90
1992;DHT22;997;48.448;8.924;2024-01-15T15:09:56;0.40;99.90
1992;DHT22;997;48.448;8.924;2024-01-15T15:12:22;0.50;99.90
1992;DHT22;997;48.448;8.924;2024-01-15T15:14:48;0.50;99.90
1992;DHT22;997;48.448;8.924;2024-01-15T15:17:13;0.60;99.90
1992;DHT22;997;48.448;8.924;2024-01-15T15:19:39;0.50;99.90
1992;DHT22;997;48.448;8.924;2024-01-15T15:22:08;0.40;99.90
1992;DHT22;997;48.448;8.924;2024-01-15T15:24:37;0.40;99.90
1992;DHT22;997;48.448;8.924;2024-01-15T15:27:04;0.30;99.90
1992;DHT22;997;48.448;8.924;2024-01-15T15:29:31;0.30;99.90
1992;DHT22;997;48.448;8.924;2024-01-15T15:31:57;0.40;99.90
1992;DHT22;997;48.448;8.924;2024-01-15T15:34:22;0.30;99.90
1992;DHT22;997;48.448;8.924;2024-01-15T15:36:48;0.30;99.90
1992;DHT22;997;48.448;8.924;2024-01-15T15:39:13;0.30;99.90
1992;DHT22;997;48.448;8.924;2024-01-15T15:41:42;0.30;99.90
1992;DHT22;997;48.448;8.924;2024-01-15T15:44:07;0.30;99.90
1992;DHT22;997;48.448;8.924;2024-01-15T15:46:35;0.50;99.90
1992;DHT22;997;48.448;8.924;2024-01-15T15:49:01;0.60;99.90
1992;DHT22;997;48.448;8.924;2024-01-15T15:51:34;0.80;99.90
1992;DHT22;997;48.448;8.924;2024-01-15T15:54:03;0.60;99.90
1992;DHT22;997;48.448;8.924;2024-01-15T15:56:34;0.60;99.90
1992;DHT22;997;48.448;8.924;2024-01-15T15:59:04;0.40;99.90
1992;DHT22;997;48.448;8.924;2024-01-15T16:01:30;0.30;99.90
1992;DHT22;997;48.448;8.924;2024-01-15T16:03:56;0.30;99.90
1992;DHT22;997;48.448;8.924;2024-01-15T16:06:22;0.30;99.90
1992;DHT22;997;48.448;8.924;2024-01-15T16:08:47;0.30;99.90
1992;DHT22;997;48.448;8.924;2024-01-15T16:13:48;0.30;99.90
1992;DHT22;997;48.448;8.924;2024-01-15T16:16:14;0.30;99.90
1992;DHT22;997;48.448;8.924;2024-01-15T16:18:39;0.40;99.90
1992;DHT22;997;48.448;8.924;2024-01-15T16:21:05;0.30;99.90
1992;DHT22;997;48.448;8.924;2024-01-15T16:23:31;0.40;99.90
1992;DHT22;997;48.448;8.924;2024-01-15T16:26:18;0.50;99.90
1992;DHT22;997;48.448;8.924;2024-01-15T16:28:44;0.50;99.90
1992;DHT22;997;48.448;8.924;2024-01-15T16:31:10;0.50;99.90
1992;DHT22;997;48.448;8.924;2024-01-15T16:33:36;0.50;99.90
1992;DHT22;997;48.448;8.924;2024-01-15T16:36:02;0.50;99.90
1992;DHT22;997;48.448;8.924;2024-01-15T16:38:28;0.30;99.90